sensor_id;sensor_type;location;lat;lon;timestamp;temperature;humidity
53294;DHT22;39181;53.440;5.644;2023-05-23T00:01:02;12.60;99.90
53294;DHT22;39181;53.440;5.644;2023-05-23T00:03:31;12.60;99.90
53294;DHT22;39181;53.440;5.644;2023-05-23T00:05:57;12.70;99.90
53294;DHT22;39181;53.440;5.644;2023-05-23T00:08:23;12.70;99.90
53294;DHT22;39181;53.440;5.644;2023-05-23T00:10:49;12.70;99.90
53294;DHT22;39181;53.440;5.644;2023-05-23T00:13:14;12.80;99.90
53294;DHT22;39181;53.440;5.644;2023-05-23T00:15:41;12.70;99.90
53294;DHT22;39181;53.440;5.644;2023-05-23T00:18:07;12.60;99.90
53294;DHT22;39181;53.440;5.644;2023-05-23T00:20:36;12.60;99.90
53294;DHT22;39181;53.440;5.644;2023-05-23T00:23:02;12.70;99.90
53294;DHT22;39181;53.440;5.644;2023-05-23T00:25:28;12.70;99.90
53294;DHT22;39181;53.440;5.644;2023-05-23T00:28:02;12.70;99.90
53294;DHT22;39181;53.440;5.644;2023-05-23T00:30:32;12.80;99.90
53294;DHT22;39181;53.440;5.644;2023-05-23T00:32:58;12.70;99.90
53294;DHT22;39181;53.440;5.644;2023-05-23T00:35:26;12.70;99.90
53294;DHT22;39181;53.440;5.644;2023-05-23T00:37:51;12.50;99.90
53294;DHT22;39181;53.440;5.644;2023-05-23T00:40:20;12.60;99.90
53294;DHT22;39181;53.440;5.644;2023-05-23T00:42:47;12.60;99.90
53294;DHT22;39181;53.440;5.644;2023-05-23T00:45:13;12.60;99.90
53294;DHT22;39181;53.440;5.644;2023-05-23T00:47:39;12.50;99.90
53294;DHT22;39181;53.440;5.644;2023-05-23T00:50:10;12.60;99.90
53294;DHT22;39181;53.440;5.644;2023-05-23T00:52:37;12.50;99.90
53294;DHT22;39181;53.440;5.644;2023-05-23T00:55:04;12.50;99.90
53294;DHT22;39181;53.440;5.644;2023-05-23T00:57:31;12.60;99.90
53294;DHT22;39181;53.440;5.644;2023-05-23T00:59:59;12.50;99.90
53294;DHT22;39181;53.440;5.644;2023-05-23T01:02:25;12.50;99.90
53294;DHT22;39181;53.440;5.644;2023-05-23T01:04:53;12.40;99.90
53294;DHT22;39181;53.440;5.644;2023-05-23T01:07:20;12.40;99.90
53294;DHT22;39181;53.440;5.644;2023-05-23T01:09:46;12.40;99.90
53294;DHT22;39181;53.440;5.644;2023-05-23T01:12:32;12.40;99.90
53294;DHT22;39181;53.440;5.644;2023-05-23T01:15:11;12.40;99.90
53294;DHT22;39181;53.440;5.644;2023-05-23T01:20:21;12.50;99.90
53294;DHT22;39181;53.440;5.644;2023-05-23T01:22:54;12.50;99.90
53294;DHT22;39181;53.440;5.644;2023-05-23T01:28:37;12.50;99.90
53294;DHT22;39181;53.440;5.644;2023-05-23T01:31:07;12.50;99.90
53294;DHT22;39181;53.440;5.644;2023-05-23T01:33:34;12.50;99.90
53294;DHT22;39181;53.440;5.644;2023-05-23T01:36:01;12.40;99.90
53294;DHT22;39181;53.440;5.644;2023-05-23T01:38:30;12.40;99.90
53294;DHT22;39181;53.440;5.644;2023-05-23T01:40:56;12.40;99.90
53294;DHT22;39181;53.440;5.644;2023-05-23T01:43:24;12.40;99.90
53294;DHT22;39181;53.440;5.644;2023-05-23T01:45:53;12.50;99.90
53294;DHT22;39181;53.440;5.644;2023-05-23T01:48:21;12.40;99.90
53294;DHT22;39181;53.440;5.644;2023-05-23T01:50:48;12.40;99.90
53294;DHT22;39181;53.440;5.644;2023-05-23T01:53:17;12.30;99.90
53294;DHT22;39181;53.440;5.644;2023-05-23T01:55:43;12.40;99.90
53294;DHT22;39181;53.440;5.644;2023-05-23T01:58:09;12.40;99.90
53294;DHT22;39181;53.440;5.644;2023-05-23T02:00:35;12.30;99.90
53294;DHT22;39181;53.440;5.644;2023-05-23T02:03:01;12.30;99.90
53294;DHT22;39181;53.440;5.644;2023-05-23T02:05:27;12.40;99.90
53294;DHT22;39181;53.440;5.644;2023-05-23T02:07:52;12.30;99.90
53294;DHT22;39181;53.440;5.644;2023-05-23T02:10:18;12.30;99.90
53294;DHT22;39181;53.440;5.644;2023-05-23T02:12:44;12.20;99.90
53294;DHT22;39181;53.440;5.644;2023-05-23T02:15:10;12.30;99.90
53294;DHT22;39181;53.440;5.644;2023-05-23T02:17:35;12.30;99.90
53294;DHT22;39181;53.440;5.644;2023-05-23T02:20:03;12.20;99.90
53294;DHT22;39181;53.440;5.644;2023-05-23T02:22:29;12.20;99.90
53294;DHT22;39181;53.440;5.644;2023-05-23T02:24:55;12.20;99.90
53294;DHT22;39181;53.440;5.644;2023-05-23T02:27:20;12.10;99.90
53294;DHT22;39181;53.440;5.644;2023-05-23T02:29:46;12.20;99.90
53294;DHT22;39181;53.440;5.644;2023-05-23T02:32:11;12.20;99.90
53294;DHT22;39181;53.440;5.644;2023-05-23T02:34:37;12.20;99.90
53294;DHT22;39181;53.440;5.644;2023-05-23T02:37:03;12.20;99.90
53294;DHT22;39181;53.440;5.644;2023-05-23T02:39:28;12.20;99.90
53294;DHT22;39181;53.440;5.644;2023-05-23T02:41:54;12.20;99.90
53294;DHT22;39181;53.440;5.644;2023-05-23T02:44:20;12.20;99.90
53294;DHT22;39181;53.440;5.644;2023-05-23T02:46:45;12.20;99.90
53294;DHT22;39181;53.440;5.644;2023-05-23T02:49:11;12.20;99.90
53294;DHT22;39181;53.440;5.644;2023-05-23T02:51:36;12.20;99.90
53294;DHT22;39181;53.440;5.644;2023-05-23T02:54:02;12.20;99.90
53294;DHT22;39181;53.440;5.644;2023-05-23T02:56:27;12.20;99.90
53294;DHT22;39181;53.440;5.644;2023-05-23T02:58:53;12.10;99.90
53294;DHT22;39181;53.440;5.644;2023-05-23T03:01:19;12.10;99.90
53294;DHT22;39181;53.440;5.644;2023-05-23T03:03:45;12.10;99.90
53294;DHT22;39181;53.440;5.644;2023-05-23T03:06:10;12.10;99.90
53294;DHT22;39181;53.440;5.644;2023-05-23T03:08:39;12.10;99.90
53294;DHT22;39181;53.440;5.644;2023-05-23T03:11:04;12.10;99.90
53294;DHT22;39181;53.440;5.644;2023-05-23T03:13:30;12.00;99.90
53294;DHT22;39181;53.440;5.644;2023-05-23T03:15:56;11.90;99.90
53294;DHT22;39181;53.440;5.644;2023-05-23T03:18:21;11.90;99.90
53294;DHT22;39181;53.440;5.644;2023-05-23T03:20:47;11.90;99.90
53294;DHT22;39181;53.440;5.644;2023-05-23T03:23:12;11.90;99.90
53294;DHT22;39181;53.440;5.644;2023-05-23T03:25:38;12.00;99.90
53294;DHT22;39181;53.440;5.644;2023-05-23T03:28:03;11.90;99.90
53294;DHT22;39181;53.440;5.644;2023-05-23T03:30:29;11.90;99.90
53294;DHT22;39181;53.440;5.644;2023-05-23T03:32:55;11.90;99.90
53294;DHT22;39181;53.440;5.644;2023-05-23T03:35:20;11.70;99.90
53294;DHT22;39181;53.440;5.644;2023-05-23T03:37:46;11.70;99.90
53294;DHT22;39181;53.440;5.644;2023-05-23T03:40:12;11.60;99.90
53294;DHT22;39181;53.440;5.644;2023-05-23T03:42:38;11.70;99.90
53294;DHT22;39181;53.440;5.644;2023-05-23T03:45:04;11.70;99.90
53294;DHT22;39181;53.440;5.644;2023-05-23T03:47:30;11.60;99.90
53294;DHT22;39181;53.440;5.644;2023-05-23T03:49:56;11.60;99.90
53294;DHT22;39181;53.440;5.644;2023-05-23T03:52:22;11.60;99.90
53294;DHT22;39181;53.440;5.644;2023-05-23T03:54:47;11.50;99.90
53294;DHT22;39181;53.440;5.644;2023-05-23T03:57:13;11.50;99.90
53294;DHT22;39181;53.440;5.644;2023-05-23T03:59:38;11.50;99.90
53294;DHT22;39181;53.440;5.644;2023-05-23T04:02:04;11.40;99.90
53294;DHT22;39181;53.440;5.644;2023-05-23T04:04:30;11.40;99.90
53294;DHT22;39181;53.440;5.644;2023-05-23T04:06:57;11.50;99.90
53294;DHT22;39181;53.440;5.644;2023-05-23T04:09:23;11.40;99.90
53294;DHT22;39181;53.440;5.644;2023-05-23T04:11:48;11.40;99.90
53294;DHT22;39181;53.440;5.644;2023-05-23T04:14:14;11.40;99.90
53294;DHT22;39181;53.440;5.644;2023-05-23T04:16:40;11.40;99.90
53294;DHT22;39181;53.440;5.644;2023-05-23T04:19:06;11.30;99.90
53294;DHT22;39181;53.440;5.644;2023-05-23T04:21:33;11.30;99.90
53294;DHT22;39181;53.440;5.644;2023-05-23T04:23:59;11.40;99.90
53294;DHT22;39181;53.440;5.644;2023-05-23T04:26:24;11.30;99.90
53294;DHT22;39181;53.440;5.644;2023-05-23T04:28:50;11.40;99.90
53294;DHT22;39181;53.440;5.644;2023-05-23T04:31:22;11.40;99.90
53294;DHT22;39181;53.440;5.644;2023-05-23T04:33:48;11.50;99.90
53294;DHT22;39181;53.440;5.644;2023-05-23T04:36:14;11.40;99.90
53294;DHT22;39181;53.440;5.644;2023-05-23T04:38:39;11.40;99.90
53294;DHT22;39181;53.440;5.644;2023-05-23T04:41:06;11.30;99.90
53294;DHT22;39181;53.440;5.644;2023-05-23T04:43:32;11.30;99.90
53294;DHT22;39181;53.440;5.644;2023-05-23T04:46:04;11.30;99.90
53294;DHT22;39181;53.440;5.644;2023-05-23T04:48:30;11.20;99.90
53294;DHT22;39181;53.440;5.644;2023-05-23T04:50:59;11.20;99.90
53294;DHT22;39181;53.440;5.644;2023-05-23T04:53:26;11.20;99.90
53294;DHT22;39181;53.440;5.644;2023-05-23T04:55:52;11.20;99.90
53294;DHT22;39181;53.440;5.644;2023-05-23T04:58:17;11.20;99.90
53294;DHT22;39181;53.440;5.644;2023-05-23T05:00:43;11.20;99.90
53294;DHT22;39181;53.440;5.644;2023-05-23T05:03:08;11.20;99.90
53294;DHT22;39181;53.440;5.644;2023-05-23T05:05:34;11.20;99.90
53294;DHT22;39181;53.440;5.644;2023-05-23T05:08:00;11.20;99.90
53294;DHT22;39181;53.440;5.644;2023-05-23T05:10:25;11.20;99.90
53294;DHT22;39181;53.440;5.644;2023-05-23T05:12:51;11.30;99.90
53294;DHT22;39181;53.440;5.644;2023-05-23T05:15:17;11.40;99.90
53294;DHT22;39181;53.440;5.644;2023-05-23T05:17:43;11.50;99.90
53294;DHT22;39181;53.440;5.644;2023-05-23T05:20:09;11.60;99.90
53294;DHT22;39181;53.440;5.644;2023-05-23T05:22:36;11.70;99.90
53294;DHT22;39181;53.440;5.644;2023-05-23T05:25:05;11.80;99.90
53294;DHT22;39181;53.440;5.644;2023-05-23T05:27:32;11.90;99.90
53294;DHT22;39181;53.440;5.644;2023-05-23T05:29:57;12.10;99.90
53294;DHT22;39181;53.440;5.644;2023-05-23T05:32:28;12.30;99.90
53294;DHT22;39181;53.440;5.644;2023-05-23T05:34:55;12.40;99.90
53294;DHT22;39181;53.440;5.644;2023-05-23T05:37:21;12.50;99.90
53294;DHT22;39181;53.440;5.644;2023-05-23T05:39:46;12.60;99.90
53294;DHT22;39181;53.440;5.644;2023-05-23T05:42:12;12.40;99.90
53294;DHT22;39181;53.440;5.644;2023-05-23T05:44:38;12.40;99.90
53294;DHT22;39181;53.440;5.644;2023-05-23T05:47:03;12.40;99.90
53294;DHT22;39181;53.440;5.644;2023-05-23T05:49:29;12.70;99.90
53294;DHT22;39181;53.440;5.644;2023-05-23T05:51:54;12.80;99.90
53294;DHT22;39181;53.440;5.644;2023-05-23T05:54:20;12.80;99.90
53294;DHT22;39181;53.440;5.644;2023-05-23T05:56:46;12.80;99.90
53294;DHT22;39181;53.440;5.644;2023-05-23T05:59:12;13.00;99.90
53294;DHT22;39181;53.440;5.644;2023-05-23T06:01:37;12.90;99.90
53294;DHT22;39181;53.440;5.644;2023-05-23T06:04:03;13.00;99.90
53294;DHT22;39181;53.440;5.644;2023-05-23T06:06:28;13.00;99.90
53294;DHT22;39181;53.440;5.644;2023-05-23T06:08:54;13.10;99.90
53294;DHT22;39181;53.440;5.644;2023-05-23T06:11:20;13.30;99.90
53294;DHT22;39181;53.440;5.644;2023-05-23T06:13:45;13.40;99.90
53294;DHT22;39181;53.440;5.644;2023-05-23T06:16:11;13.50;99.90
53294;DHT22;39181;53.440;5.644;2023-05-23T06:18:36;13.70;99.90
53294;DHT22;39181;53.440;5.644;2023-05-23T06:21:02;13.60;99.90
53294;DHT22;39181;53.440;5.644;2023-05-23T06:23:27;13.60;99.90
53294;DHT22;39181;53.440;5.644;2023-05-23T06:25:53;13.50;99.90
53294;DHT22;39181;53.440;5.644;2023-05-23T06:28:18;13.60;99.90
53294;DHT22;39181;53.440;5.644;2023-05-23T06:30:44;13.60;99.90
53294;DHT22;39181;53.440;5.644;2023-05-23T06:33:10;13.50;99.90
53294;DHT22;39181;53.440;5.644;2023-05-23T06:35:36;13.40;99.90
53294;DHT22;39181;53.440;5.644;2023-05-23T06:38:02;13.80;99.90
53294;DHT22;39181;53.440;5.644;2023-05-23T06:40:27;14.10;99.90
53294;DHT22;39181;53.440;5.644;2023-05-23T06:42:53;14.10;99.90
53294;DHT22;39181;53.440;5.644;2023-05-23T06:45:19;13.80;99.90
53294;DHT22;39181;53.440;5.644;2023-05-23T06:47:44;13.80;99.90
53294;DHT22;39181;53.440;5.644;2023-05-23T06:50:12;13.90;99.90
53294;DHT22;39181;53.440;5.644;2023-05-23T06:52:38;14.00;99.90
53294;DHT22;39181;53.440;5.644;2023-05-23T06:55:04;14.10;99.90
53294;DHT22;39181;53.440;5.644;2023-05-23T06:57:29;13.90;99.90
53294;DHT22;39181;53.440;5.644;2023-05-23T06:59:55;13.50;99.90
53294;DHT22;39181;53.440;5.644;2023-05-23T07:02:20;13.50;99.90
53294;DHT22;39181;53.440;5.644;2023-05-23T07:04:46;13.50;99.90
53294;DHT22;39181;53.440;5.644;2023-05-23T07:07:12;13.50;99.90
53294;DHT22;39181;53.440;5.644;2023-05-23T07:09:37;13.50;99.90
53294;DHT22;39181;53.440;5.644;2023-05-23T07:12:04;13.60;99.90
53294;DHT22;39181;53.440;5.644;2023-05-23T07:14:30;13.60;99.90
53294;DHT22;39181;53.440;5.644;2023-05-23T07:16:55;13.90;99.90
53294;DHT22;39181;53.440;5.644;2023-05-23T07:19:21;14.00;99.90
53294;DHT22;39181;53.440;5.644;2023-05-23T07:21:46;14.20;99.90
53294;DHT22;39181;53.440;5.644;2023-05-23T07:24:12;14.30;99.90
53294;DHT22;39181;53.440;5.644;2023-05-23T07:26:38;14.40;99.90
53294;DHT22;39181;53.440;5.644;2023-05-23T07:29:03;14.50;99.90
53294;DHT22;39181;53.440;5.644;2023-05-23T07:31:29;14.70;99.90
53294;DHT22;39181;53.440;5.644;2023-05-23T07:33:55;14.70;99.90
53294;DHT22;39181;53.440;5.644;2023-05-23T07:36:20;14.60;99.90
53294;DHT22;39181;53.440;5.644;2023-05-23T07:38:46;14.50;99.90
53294;DHT22;39181;53.440;5.644;2023-05-23T07:41:12;14.30;99.90
53294;DHT22;39181;53.440;5.644;2023-05-23T07:43:38;14.10;99.90
53294;DHT22;39181;53.440;5.644;2023-05-23T07:46:03;14.30;99.90
53294;DHT22;39181;53.440;5.644;2023-05-23T07:48:29;14.30;99.90
53294;DHT22;39181;53.440;5.644;2023-05-23T07:50:56;14.40;99.90
53294;DHT22;39181;53.440;5.644;2023-05-23T07:53:21;14.50;99.90
53294;DHT22;39181;53.440;5.644;2023-05-23T07:55:47;14.50;99.90
53294;DHT22;39181;53.440;5.644;2023-05-23T07:58:13;14.60;99.90
53294;DHT22;39181;53.440;5.644;2023-05-23T08:00:38;14.60;99.90
53294;DHT22;39181;53.440;5.644;2023-05-23T08:03:06;14.70;99.90
53294;DHT22;39181;53.440;5.644;2023-05-23T08:05:31;14.80;99.90
53294;DHT22;39181;53.440;5.644;2023-05-23T08:07:57;14.70;99.90
53294;DHT22;39181;53.440;5.644;2023-05-23T08:10:22;14.60;99.90
53294;DHT22;39181;53.440;5.644;2023-05-23T08:12:48;14.50;99.90
53294;DHT22;39181;53.440;5.644;2023-05-23T08:15:14;14.30;99.90
53294;DHT22;39181;53.440;5.644;2023-05-23T08:17:39;14.20;99.90
53294;DHT22;39181;53.440;5.644;2023-05-23T08:20:05;14.30;99.90
53294;DHT22;39181;53.440;5.644;2023-05-23T08:22:32;14.40;99.90
53294;DHT22;39181;53.440;5.644;2023-05-23T08:24:58;14.40;99.90
53294;DHT22;39181;53.440;5.644;2023-05-23T08:27:23;14.40;99.90
53294;DHT22;39181;53.440;5.644;2023-05-23T08:29:49;14.40;99.90
53294;DHT22;39181;53.440;5.644;2023-05-23T08:32:14;14.50;99.90
53294;DHT22;39181;53.440;5.644;2023-05-23T08:34:40;14.60;99.90
53294;DHT22;39181;53.440;5.644;2023-05-23T08:37:06;14.60;99.90
53294;DHT22;39181;53.440;5.644;2023-05-23T08:39:32;14.80;99.90
53294;DHT22;39181;53.440;5.644;2023-05-23T08:41:57;14.90;99.90
53294;DHT22;39181;53.440;5.644;2023-05-23T08:44:23;15.00;99.90
53294;DHT22;39181;53.440;5.644;2023-05-23T08:46:51;15.10;99.90
53294;DHT22;39181;53.440;5.644;2023-05-23T08:49:17;15.20;99.90
53294;DHT22;39181;53.440;5.644;2023-05-23T08:51:43;15.30;99.90
53294;DHT22;39181;53.440;5.644;2023-05-23T08:54:10;15.50;99.90
53294;DHT22;39181;53.440;5.644;2023-05-23T08:56:39;15.50;99.90
53294;DHT22;39181;53.440;5.644;2023-05-23T08:59:07;15.60;99.90
53294;DHT22;39181;53.440;5.644;2023-05-23T09:01:33;15.70;99.90
53294;DHT22;39181;53.440;5.644;2023-05-23T09:03:59;15.80;99.90
53294;DHT22;39181;53.440;5.644;2023-05-23T09:06:29;16.00;99.90
53294;DHT22;39181;53.440;5.644;2023-05-23T09:08:55;16.20;99.90
53294;DHT22;39181;53.440;5.644;2023-05-23T09:11:21;16.30;99.90
53294;DHT22;39181;53.440;5.644;2023-05-23T09:13:48;16.40;99.90
53294;DHT22;39181;53.440;5.644;2023-05-23T09:16:15;16.40;99.90
53294;DHT22;39181;53.440;5.644;2023-05-23T09:18:43;16.40;99.90
53294;DHT22;39181;53.440;5.644;2023-05-23T09:21:09;16.30;99.90
53294;DHT22;39181;53.440;5.644;2023-05-23T09:23:37;16.30;99.90
53294;DHT22;39181;53.440;5.644;2023-05-23T09:26:08;16.40;99.90
53294;DHT22;39181;53.440;5.644;2023-05-23T09:28:36;16.60;99.90
53294;DHT22;39181;53.440;5.644;2023-05-23T09:31:04;16.90;99.90
53294;DHT22;39181;53.440;5.644;2023-05-23T09:33:46;17.00;99.90
53294;DHT22;39181;53.440;5.644;2023-05-23T09:36:16;17.10;99.90
53294;DHT22;39181;53.440;5.644;2023-05-23T09:38:43;16.90;99.90
53294;DHT22;39181;53.440;5.644;2023-05-23T09:41:10;16.60;99.90
53294;DHT22;39181;53.440;5.644;2023-05-23T09:43:49;16.50;99.90
53294;DHT22;39181;53.440;5.644;2023-05-23T09:46:15;16.50;99.90
53294;DHT22;39181;53.440;5.644;2023-05-23T09:48:46;16.40;99.90
53294;DHT22;39181;53.440;5.644;2023-05-23T09:51:12;16.70;99.90
53294;DHT22;39181;53.440;5.644;2023-05-23T09:53:37;17.00;99.90
53294;DHT22;39181;53.440;5.644;2023-05-23T09:56:03;17.10;99.90
53294;DHT22;39181;53.440;5.644;2023-05-23T09:58:29;16.90;99.90
53294;DHT22;39181;53.440;5.644;2023-05-23T10:00:55;16.90;99.90
53294;DHT22;39181;53.440;5.644;2023-05-23T10:03:26;17.10;99.90
53294;DHT22;39181;53.440;5.644;2023-05-23T10:05:58;17.30;99.90
53294;DHT22;39181;53.440;5.644;2023-05-23T10:08:49;17.40;99.90
53294;DHT22;39181;53.440;5.644;2023-05-23T10:14:08;17.30;99.90
53294;DHT22;39181;53.440;5.644;2023-05-23T10:19:35;17.00;99.90
53294;DHT22;39181;53.440;5.644;2023-05-23T10:22:05;17.00;99.90
53294;DHT22;39181;53.440;5.644;2023-05-23T10:24:31;17.10;99.90
53294;DHT22;39181;53.440;5.644;2023-05-23T10:26:58;17.10;99.90
53294;DHT22;39181;53.440;5.644;2023-05-23T10:29:24;17.00;99.90
53294;DHT22;39181;53.440;5.644;2023-05-23T10:31:52;16.90;99.90
53294;DHT22;39181;53.440;5.644;2023-05-23T10:37:01;17.10;99.90
53294;DHT22;39181;53.440;5.644;2023-05-23T10:42:41;16.80;99.90
53294;DHT22;39181;53.440;5.644;2023-05-23T10:45:18;16.70;99.90
53294;DHT22;39181;53.440;5.644;2023-05-23T10:47:47;16.70;99.90
53294;DHT22;39181;53.440;5.644;2023-05-23T10:50:16;16.70;99.90
53294;DHT22;39181;53.440;5.644;2023-05-23T10:52:54;16.70;99.90
53294;DHT22;39181;53.440;5.644;2023-05-23T10:55:20;16.90;99.90
53294;DHT22;39181;53.440;5.644;2023-05-23T11:00:38;17.10;99.90
53294;DHT22;39181;53.440;5.644;2023-05-23T11:03:04;16.90;99.90
53294;DHT22;39181;53.440;5.644;2023-05-23T11:05:33;16.70;99.90
53294;DHT22;39181;53.440;5.644;2023-05-23T11:08:10;16.90;99.90
53294;DHT22;39181;53.440;5.644;2023-05-23T11:11:00;16.90;99.90
53294;DHT22;39181;53.440;5.644;2023-05-23T11:13:53;16.70;99.90
53294;DHT22;39181;53.440;5.644;2023-05-23T11:16:26;16.60;99.90
53294;DHT22;39181;53.440;5.644;2023-05-23T11:21:43;16.70;99.90
53294;DHT22;39181;53.440;5.644;2023-05-23T11:24:09;16.80;99.90
53294;DHT22;39181;53.440;5.644;2023-05-23T11:26:35;16.80;99.90
53294;DHT22;39181;53.440;5.644;2023-05-23T11:29:00;16.90;99.90
53294;DHT22;39181;53.440;5.644;2023-05-23T11:31:28;17.10;99.90
53294;DHT22;39181;53.440;5.644;2023-05-23T11:33:54;17.10;99.90
53294;DHT22;39181;53.440;5.644;2023-05-23T11:36:21;17.30;99.90
53294;DHT22;39181;53.440;5.644;2023-05-23T11:38:51;17.50;99.90
53294;DHT22;39181;53.440;5.644;2023-05-23T11:41:17;17.40;99.90
53294;DHT22;39181;53.440;5.644;2023-05-23T11:43:52;17.20;99.90
53294;DHT22;39181;53.440;5.644;2023-05-23T11:46:18;17.20;99.90
53294;DHT22;39181;53.440;5.644;2023-05-23T11:48:47;17.10;99.90
53294;DHT22;39181;53.440;5.644;2023-05-23T11:51:13;17.10;99.90
53294;DHT22;39181;53.440;5.644;2023-05-23T11:53:40;17.20;99.90
53294;DHT22;39181;53.440;5.644;2023-05-23T11:56:06;17.30;99.90
53294;DHT22;39181;53.440;5.644;2023-05-23T11:58:36;17.30;99.90
53294;DHT22;39181;53.440;5.644;2023-05-23T12:01:07;17.50;99.90
53294;DHT22;39181;53.440;5.644;2023-05-23T12:03:33;17.60;99.90
53294;DHT22;39181;53.440;5.644;2023-05-23T12:05:59;17.70;99.90
53294;DHT22;39181;53.440;5.644;2023-05-23T12:08:26;17.60;99.90
53294;DHT22;39181;53.440;5.644;2023-05-23T12:10:59;17.50;99.90
53294;DHT22;39181;53.440;5.644;2023-05-23T12:13:27;17.80;99.90
53294;DHT22;39181;53.440;5.644;2023-05-23T12:15:58;17.60;99.90
53294;DHT22;39181;53.440;5.644;2023-05-23T12:18:28;17.60;99.90
53294;DHT22;39181;53.440;5.644;2023-05-23T12:20:54;17.50;99.90
53294;DHT22;39181;53.440;5.644;2023-05-23T12:23:21;17.50;99.90
53294;DHT22;39181;53.440;5.644;2023-05-23T12:25:55;17.20;99.90
53294;DHT22;39181;53.440;5.644;2023-05-23T12:28:33;16.90;99.90
53294;DHT22;39181;53.440;5.644;2023-05-23T12:30:59;16.70;99.90
53294;DHT22;39181;53.440;5.644;2023-05-23T12:33:32;16.60;99.90
53294;DHT22;39181;53.440;5.644;2023-05-23T12:36:02;16.70;99.90
53294;DHT22;39181;53.440;5.644;2023-05-23T12:38:28;16.60;99.90
53294;DHT22;39181;53.440;5.644;2023-05-23T12:41:10;16.60;99.90
53294;DHT22;39181;53.440;5.644;2023-05-23T12:43:39;16.60;99.90
53294;DHT22;39181;53.440;5.644;2023-05-23T12:46:06;16.60;99.90
53294;DHT22;39181;53.440;5.644;2023-05-23T12:48:32;16.80;99.90
53294;DHT22;39181;53.440;5.644;2023-05-23T12:50:58;16.90;99.90
53294;DHT22;39181;53.440;5.644;2023-05-23T12:53:25;16.90;99.90
53294;DHT22;39181;53.440;5.644;2023-05-23T12:55:51;16.90;99.90
53294;DHT22;39181;53.440;5.644;2023-05-23T12:58:16;17.10;99.90
53294;DHT22;39181;53.440;5.644;2023-05-23T13:00:42;17.10;99.90
53294;DHT22;39181;53.440;5.644;2023-05-23T13:03:08;16.90;99.90
53294;DHT22;39181;53.440;5.644;2023-05-23T13:05:33;16.80;99.90
53294;DHT22;39181;53.440;5.644;2023-05-23T13:07:59;16.60;99.90
53294;DHT22;39181;53.440;5.644;2023-05-23T13:10:25;16.60;99.90
53294;DHT22;39181;53.440;5.644;2023-05-23T13:12:50;16.50;99.90
53294;DHT22;39181;53.440;5.644;2023-05-23T13:15:16;16.30;99.90
53294;DHT22;39181;53.440;5.644;2023-05-23T13:17:42;16.10;99.90
53294;DHT22;39181;53.440;5.644;2023-05-23T13:20:07;16.00;99.90
53294;DHT22;39181;53.440;5.644;2023-05-23T13:22:34;16.20;99.90
53294;DHT22;39181;53.440;5.644;2023-05-23T13:24:59;16.10;99.90
53294;DHT22;39181;53.440;5.644;2023-05-23T13:27:25;16.10;99.90
53294;DHT22;39181;53.440;5.644;2023-05-23T13:29:51;16.00;99.90
53294;DHT22;39181;53.440;5.644;2023-05-23T13:32:16;16.00;99.90
53294;DHT22;39181;53.440;5.644;2023-05-23T13:34:43;16.10;99.90
53294;DHT22;39181;53.440;5.644;2023-05-23T13:37:08;16.00;99.90
53294;DHT22;39181;53.440;5.644;2023-05-23T13:39:34;15.90;99.90
53294;DHT22;39181;53.440;5.644;2023-05-23T13:41:59;15.90;99.90
53294;DHT22;39181;53.440;5.644;2023-05-23T13:44:25;15.80;99.90
53294;DHT22;39181;53.440;5.644;2023-05-23T13:46:50;16.00;99.90
53294;DHT22;39181;53.440;5.644;2023-05-23T13:49:16;15.90;99.90
53294;DHT22;39181;53.440;5.644;2023-05-23T13:51:41;15.70;99.90
53294;DHT22;39181;53.440;5.644;2023-05-23T13:54:08;15.60;99.90
53294;DHT22;39181;53.440;5.644;2023-05-23T13:56:34;15.80;99.90
53294;DHT22;39181;53.440;5.644;2023-05-23T13:59:01;16.10;99.90
53294;DHT22;39181;53.440;5.644;2023-05-23T14:01:26;16.10;99.90
53294;DHT22;39181;53.440;5.644;2023-05-23T14:03:52;16.00;99.90
53294;DHT22;39181;53.440;5.644;2023-05-23T14:06:18;15.80;99.90
53294;DHT22;39181;53.440;5.644;2023-05-23T14:08:44;15.60;99.90
53294;DHT22;39181;53.440;5.644;2023-05-23T14:11:09;15.80;99.90
53294;DHT22;39181;53.440;5.644;2023-05-23T14:13:35;15.80;99.90
53294;DHT22;39181;53.440;5.644;2023-05-23T14:16:01;15.70;99.90
53294;DHT22;39181;53.440;5.644;2023-05-23T14:18:26;15.70;99.90
53294;DHT22;39181;53.440;5.644;2023-05-23T14:20:52;15.40;99.90
53294;DHT22;39181;53.440;5.644;2023-05-23T14:23:17;15.30;99.90
53294;DHT22;39181;53.440;5.644;2023-05-23T14:25:43;15.30;99.90
53294;DHT22;39181;53.440;5.644;2023-05-23T14:28:10;15.20;99.90
53294;DHT22;39181;53.440;5.644;2023-05-23T14:30:36;15.00;99.90
53294;DHT22;39181;53.440;5.644;2023-05-23T14:33:01;14.90;99.90
53294;DHT22;39181;53.440;5.644;2023-05-23T14:35:27;14.90;99.90
53294;DHT22;39181;53.440;5.644;2023-05-23T14:37:53;14.80;99.90
53294;DHT22;39181;53.440;5.644;2023-05-23T14:40:19;14.70;99.90
53294;DHT22;39181;53.440;5.644;2023-05-23T14:42:45;14.70;99.90
53294;DHT22;39181;53.440;5.644;2023-05-23T14:45:10;14.60;99.90
53294;DHT22;39181;53.440;5.644;2023-05-23T14:47:36;14.90;99.90
53294;DHT22;39181;53.440;5.644;2023-05-23T14:50:02;15.00;99.90
53294;DHT22;39181;53.440;5.644;2023-05-23T14:52:27;15.00;99.90
53294;DHT22;39181;53.440;5.644;2023-05-23T14:54:53;15.00;99.90
53294;DHT22;39181;53.440;5.644;2023-05-23T14:57:19;15.00;99.90
53294;DHT22;39181;53.440;5.644;2023-05-23T14:59:44;15.00;99.90
53294;DHT22;39181;53.440;5.644;2023-05-23T15:02:11;15.00;99.90
53294;DHT22;39181;53.440;5.644;2023-05-23T15:04:36;15.00;99.90
53294;DHT22;39181;53.440;5.644;2023-05-23T15:07:02;15.00;99.90
53294;DHT22;39181;53.440;5.644;2023-05-23T15:09:27;15.00;99.90
53294;DHT22;39181;53.440;5.644;2023-05-23T15:11:53;14.80;99.90
53294;DHT22;39181;53.440;5.644;2023-05-23T15:14:19;14.70;99.90
53294;DHT22;39181;53.440;5.644;2023-05-23T15:16:46;14.70;99.90
53294;DHT22;39181;53.440;5.644;2023-05-23T15:19:13;14.60;99.90
53294;DHT22;39181;53.440;5.644;2023-05-23T15:21:38;14.80;99.90
53294;DHT22;39181;53.440;5.644;2023-05-23T15:24:04;14.90;99.90
53294;DHT22;39181;53.440;5.644;2023-05-23T15:26:30;14.90;99.90
53294;DHT22;39181;53.440;5.644;2023-05-23T15:28:55;14.90;99.90
53294;DHT22;39181;53.440;5.644;2023-05-23T15:31:21;15.00;99.90
53294;DHT22;39181;53.440;5.644;2023-05-23T15:33:47;15.10;99.90
53294;DHT22;39181;53.440;5.644;2023-05-23T15:36:12;15.20;99.90
53294;DHT22;39181;53.440;5.644;2023-05-23T15:38:38;15.10;99.90
53294;DHT22;39181;53.440;5.644;2023-05-23T15:41:04;15.00;99.90
53294;DHT22;39181;53.440;5.644;2023-05-23T15:43:31;15.10;99.90
53294;DHT22;39181;53.440;5.644;2023-05-23T15:45:57;15.00;99.90
53294;DHT22;39181;53.440;5.644;2023-05-23T15:48:23;15.00;99.90
53294;DHT22;39181;53.440;5.644;2023-05-23T15:50:48;14.70;99.90